createdAt,value
2023-05-01T00:03:37.969Z,100435.94
2023-05-01T00:08:39.464Z,100435.06
2023-05-01T00:13:41.068Z,100426.31
2023-05-01T00:18:42.417Z,100421.72
2023-05-01T00:23:43.803Z,100411.44
2023-05-01T00:28:45.208Z,100408.53
2023-05-01T00:33:46.589Z,100408.91
2023-05-01T00:38:48.064Z,100397.56
2023-05-01T00:43:49.394Z,100393.31
2023-05-01T00:48:52.106Z,100396.19
2023-05-01T00:53:54.044Z,100393.31
2023-05-01T00:58:56.229Z,100386.81
2023-05-01T01:03:57.697Z,100374.53
2023-05-01T01:09:29.026Z,100366.63
2023-05-01T01:14:56.643Z,100365.81
2023-05-01T01:20:23.580Z,100355.81
2023-05-01T01:25:41.596Z,100350.81
2023-05-01T01:30:51.885Z,100349.94
2023-05-01T01:36:07.108Z,100342.44
2023-05-01T01:41:33.105Z,100344.00
2023-05-01T01:46:39.387Z,100342.06
2023-05-01T01:51:41.856Z,100331.81
2023-05-01T01:56:45.239Z,100324.22
2023-05-01T02:01:49.158Z,100327.34
2023-05-01T02:06:52.015Z,100322.31
2023-05-01T02:11:57.565Z,100320.41
2023-05-01T02:16:59.516Z,100326.41
2023-05-01T02:22:02.811Z,100322.97
2023-05-01T02:27:09.434Z,100325.59
2023-05-01T02:32:10.846Z,100318.03
2023-05-01T02:37:12.516Z,100322.72
2023-05-01T02:42:16.438Z,100311.88
2023-05-01T02:47:21.367Z,100308.84
2023-05-01T02:52:23.194Z,100298.81
2023-05-01T02:57:25.056Z,100302.56
2023-05-01T03:02:26.730Z,100295.09
2023-05-01T03:07:34.843Z,100299.03
2023-05-01T03:12:36.182Z,100295.28
2023-05-01T03:17:37.522Z,100288.88
2023-05-01T03:22:39.969Z,100285.91
2023-05-01T03:27:41.573Z,100291.88
2023-05-01T03:32:42.997Z,100283.66
2023-05-01T03:37:44.388Z,100280.56
2023-05-01T03:42:45.758Z,100275.44
2023-05-01T03:47:47.131Z,100271.47
2023-05-01T03:52:48.519Z,100282.25
2023-05-01T03:57:49.907Z,100275.44
2023-05-01T04:02:51.461Z,100266.13
2023-05-01T04:07:52.880Z,100273.06
2023-05-01T04:12:54.204Z,100265.94
2023-05-01T04:17:56.699Z,100273.56
2023-05-01T04:22:58.081Z,100281.41
2023-05-01T04:27:59.481Z,100277.50
2023-05-01T04:33:01.783Z,100273.31
2023-05-01T04:38:03.185Z,100276.31
2023-05-01T04:43:04.501Z,100280.09
2023-05-01T04:48:06.473Z,100275.25
2023-05-01T04:53:08.690Z,100280.63
2023-05-01T04:58:10.019Z,100269.22
2023-05-01T05:03:11.487Z,100282.25
2023-05-01T05:08:12.936Z,100277.22
2023-05-01T05:13:14.255Z,100274.13
2023-05-01T05:18:15.626Z,100268.19
2023-05-01T05:23:17.022Z,100269.53
2023-05-01T05:28:18.412Z,100269.53
2023-05-01T05:33:19.995Z,100270.03
2023-05-01T05:38:21.722Z,100270.78
2023-05-01T05:43:24.953Z,100272.75
2023-05-01T05:48:27.796Z,100266.13
2023-05-01T05:53:29.239Z,100258.63
2023-05-01T05:58:30.770Z,100253.34
2023-05-01T06:03:32.790Z,100258.50
2023-05-01T06:08:36.340Z,100259.06
2023-05-01T06:13:37.683Z,100261.75
2023-05-01T06:18:39.137Z,100252.13
2023-05-01T06:23:40.472Z,100234.56
2023-05-01T06:28:41.836Z,100235.03
2023-05-01T06:33:43.179Z,100232.63
2023-05-01T06:38:48.639Z,100231.00
2023-05-01T06:43:50.070Z,100226.41
2023-05-01T06:48:51.400Z,100230.13
2023-05-01T06:53:52.768Z,100232.22
2023-05-01T06:58:54.129Z,100233.84
2023-05-01T07:03:55.470Z,100230.28
2023-05-01T07:08:56.793Z,100223.38
2023-05-01T07:13:58.203Z,100218.13
2023-05-01T07:18:59.685Z,100209.78
2023-05-01T07:24:01.038Z,100220.34
2023-05-01T07:29:03.022Z,100208.75
2023-05-01T07:34:04.768Z,100207.59
2023-05-01T07:39:06.723Z,100199.88
2023-05-01T07:44:08.158Z,100212.38
2023-05-01T07:49:09.539Z,100204.41
2023-05-01T07:54:10.881Z,100203.50
2023-05-01T07:59:12.229Z,100205.41
2023-05-01T08:04:14.441Z,100210.75
2023-05-01T08:09:16.581Z,100199.22
2023-05-01T08:14:18.341Z,100206.16
2023-05-01T08:19:19.679Z,100201.59
2023-05-01T08:24:21.066Z,100193.47
2023-05-01T08:29:22.520Z,100197.00
2023-05-01T08:34:24.093Z,100203.25
2023-05-01T08:39:25.544Z,100190.31
2023-05-01T08:44:28.772Z,100187.25
2023-05-01T08:49:33.601Z,100190.94
2023-05-01T08:54:36.812Z,100186.66
2023-05-01T08:59:39.280Z,100180.63
2023-05-01T09:04:41.737Z,100182.88
2023-05-01T09:09:43.644Z,100176.13
2023-05-01T09:14:45.434Z,100179.88
2023-05-01T09:19:47.774Z,100179.84
2023-05-01T09:24:49.639Z,100186.00
2023-05-01T09:29:50.985Z,100178.34
2023-05-01T09:34:52.466Z,100180.72
2023-05-01T09:40:08.748Z,100177.16
2023-05-01T09:45:14.686Z,100170.16
2023-05-01T09:50:33.173Z,100164.78
2023-05-01T09:55:34.727Z,100164.34
2023-05-01T10:00:48.437Z,100153.38
2023-05-01T10:05:50.054Z,100150.78
2023-05-01T10:11:04.447Z,100168.97
2023-05-01T10:16:08.349Z,100149.63
2023-05-01T10:21:10.690Z,100148.03
2023-05-01T10:26:13.859Z,100145.81
2023-05-01T10:31:16.612Z,100142.44
2023-05-01T10:36:23.129Z,100139.06
2023-05-01T10:41:58.257Z,100143.47
2023-05-01T10:46:59.703Z,100140.13
2023-05-01T10:52:03.563Z,100136.50
2023-05-01T10:57:06.474Z,100126.16
2023-05-01T11:02:22.134Z,100118.28
2023-05-01T11:07:23.986Z,100110.50
2023-05-01T11:12:51.680Z,100101.50
2023-05-01T11:17:53.248Z,100096.88
2023-05-01T11:22:57.030Z,100099.03
2023-05-01T11:28:01.048Z,100085.16
2023-05-01T11:33:02.551Z,100084.56
2023-05-01T11:38:03.953Z,100091.28
2023-05-01T11:43:06.915Z,100083.41
2023-05-01T11:48:16.395Z,100072.41
2023-05-01T11:53:18.554Z,100071.81
2023-05-01T11:58:31.958Z,100066.66
2023-05-01T12:03:42.445Z,100057.72
2023-05-01T12:08:47.377Z,100055.53
2023-05-01T12:13:50.226Z,100066.22
2023-05-01T12:18:52.917Z,100071.13
2023-05-01T12:23:59.947Z,100070.16
2023-05-01T12:29:06.663Z,100062.84
2023-05-01T12:34:08.185Z,100066.03
2023-05-01T12:39:14.329Z,100060.34
2023-05-01T12:44:19.598Z,100058.53
2023-05-01T12:49:22.504Z,100058.53
2023-05-01T12:54:43.265Z,100052.97
2023-05-01T12:59:46.860Z,100050.25
2023-05-01T13:04:49.680Z,100056.59
2023-05-01T13:09:59.333Z,100056.47
2023-05-01T13:15:01.148Z,100050.53
2023-05-01T13:20:04.863Z,100048.47
2023-05-01T13:25:17.190Z,100049.81
2023-05-01T13:30:22.010Z,100033.22
2023-05-01T13:35:24.902Z,100037.06
2023-05-01T13:40:27.628Z,100031.84
2023-05-01T13:45:29.011Z,100035.69
2023-05-01T13:50:30.551Z,100037.75
2023-05-01T13:55:32.557Z,100038.38
2023-05-01T14:00:34.069Z,100041.16
2023-05-01T14:05:36.602Z,100044.41
2023-05-01T14:10:38.404Z,100043.75
2023-05-01T14:15:43.764Z,100039.03
2023-05-01T14:20:47.305Z,100036.75
2023-05-01T14:25:49.328Z,100030.72
2023-05-01T14:30:51.288Z,100031.84
2023-05-01T14:35:53.659Z,100012.19
2023-05-01T14:40:55.242Z,100017.69
2023-05-01T14:45:56.823Z,100018.78
2023-05-01T14:50:59.352Z,100021.50
2023-05-01T14:56:00.922Z,100022.56
2023-05-01T15:01:02.610Z,100028.03
2023-05-01T15:06:04.292Z,100026.63
2023-05-01T15:11:05.921Z,100030.47
2023-05-01T15:16:08.203Z,100026.34
2023-05-01T15:21:09.717Z,100019.44
2023-05-01T15:26:11.288Z,100020.28
2023-05-01T15:31:12.742Z,100017.34
2023-05-01T15:36:14.258Z,100020.16
2023-05-01T15:41:18.300Z,100019.63
2023-05-01T15:46:22.877Z,100022.03
2023-05-01T15:51:25.827Z,100019.06
2023-05-01T15:56:27.468Z,100023.00
2023-05-01T16:01:32.337Z,100012.28
2023-05-01T16:06:35.043Z,100014.34
2023-05-01T16:11:36.569Z,100012.13
2023-05-01T16:16:41.113Z,100016.16
2023-05-01T16:21:42.731Z,100027.50
2023-05-01T16:26:44.282Z,100017.44
2023-05-01T16:31:47.465Z,100019.72
2023-05-01T16:36:49.058Z,100021.38
2023-05-01T16:41:51.663Z,100031.00
2023-05-01T16:47:01.069Z,100030.44
2023-05-01T16:52:04.214Z,100037.81
2023-05-01T16:57:05.980Z,100040.84
2023-05-01T17:02:07.916Z,100041.38
2023-05-01T17:07:09.545Z,100042.59
2023-05-01T17:12:11.003Z,100041.38
2023-05-01T17:17:12.501Z,100041.09
2023-05-01T17:22:14.489Z,100050.69
2023-05-01T17:27:16.266Z,100057.88
2023-05-01T17:37:39.786Z,100066.31
2023-05-01T17:42:41.861Z,100062.28
2023-05-01T17:47:44.875Z,100065.38
2023-05-01T17:52:46.305Z,100061.34
2023-05-01T17:57:47.838Z,100077.28
2023-05-01T18:02:49.334Z,100074.81
2023-05-01T18:07:50.858Z,100080.63
2023-05-01T18:12:52.566Z,100089.81
2023-05-01T18:17:54.036Z,100085.22
2023-05-01T18:22:55.515Z,100089.63
2023-05-01T18:27:57.451Z,100089.16
2023-05-01T18:32:58.995Z,100090.28
2023-05-01T18:38:00.411Z,100090.09
2023-05-01T18:43:03.068Z,100102.66
2023-05-01T18:48:05.008Z,100106.94
2023-05-01T18:53:06.476Z,100114.09
2023-05-01T18:58:07.979Z,100131.09
2023-05-01T19:03:09.523Z,100139.81
2023-05-01T19:08:11.023Z,100149.91
2023-05-01T19:13:12.638Z,100160.00
2023-05-01T19:18:16.039Z,100167.25
2023-05-01T19:23:17.542Z,100179.22
2023-05-01T19:28:19.185Z,100180.25
2023-05-01T19:33:20.722Z,100195.25
2023-05-01T19:38:22.192Z,100195.44
2023-05-01T19:43:23.614Z,100207.72
2023-05-01T19:48:25.253Z,100210.88
2023-05-01T19:53:28.377Z,100219.63
2023-05-01T19:58:29.907Z,100230.47
2023-05-01T20:03:31.633Z,100226.88
2023-05-01T20:08:33.779Z,100235.09
2023-05-01T20:13:36.764Z,100237.69
2023-05-01T20:18:38.174Z,100244.44
2023-05-01T20:23:40.188Z,100255.44
2023-05-01T20:28:41.746Z,100254.91
2023-05-01T20:33:43.184Z,100263.09
2023-05-01T20:38:46.282Z,100264.66
2023-05-01T20:43:47.830Z,100267.94
2023-05-01T20:48:49.370Z,100271.75
2023-05-01T20:53:51.230Z,100268.59
2023-05-01T20:58:53.267Z,100275.47
2023-05-01T21:03:55.438Z,100272.19
2023-05-01T21:09:00.554Z,100270.25
2023-05-01T21:14:02.383Z,100277.41
2023-05-01T21:19:03.795Z,100276.41
2023-05-01T21:24:07.795Z,100285.34
2023-05-01T21:29:09.700Z,100281.41
2023-05-01T21:34:11.168Z,100282.31
2023-05-01T21:39:12.894Z,100288.66
2023-05-01T21:44:14.658Z,100290.28
2023-05-01T21:49:18.483Z,100292.28
2023-05-01T21:54:21.512Z,100301.16
2023-05-01T21:59:23.179Z,100304.09
2023-05-01T22:04:24.511Z,100302.28
2023-05-01T22:09:25.996Z,100304.78
2023-05-01T22:14:36.688Z,100315.66
2023-05-01T22:19:47.900Z,100317.31
2023-05-01T22:24:49.235Z,100314.81
2023-05-01T22:29:50.654Z,100323.59
2023-05-01T22:34:51.985Z,100320.25
2023-05-01T22:39:53.887Z,100329.84
2023-05-01T22:44:55.236Z,100341.16
2023-05-01T22:49:56.653Z,100343.53
2023-05-01T22:54:58.278Z,100345.53
2023-05-01T22:59:59.786Z,100352.28
2023-05-01T23:05:01.684Z,100354.25
2023-05-01T23:10:03.386Z,100354.38
2023-05-01T23:15:08.746Z,100365.59
2023-05-01T23:20:15.519Z,100367.69
2023-05-01T23:25:22.911Z,100370.94
2023-05-01T23:30:24.471Z,100367.22
2023-05-01T23:35:25.941Z,100369.50
2023-05-01T23:40:27.432Z,100372.03
2023-05-01T23:45:28.784Z,100373.72
2023-05-01T23:50:30.330Z,100371.22
2023-05-01T23:55:31.645Z,100375.41
